Time;durP1;ratioP1;P1;durP2;ratioP2;P2;SDS_P1;SDS_P2;PMS_P1;PMS_P2;Temp;Humidity;BMP_temperature;BMP_pressure;BME280_temperature;BME280_humidity;BME280_pressure;Samples;Min_cycle;Max_cycle;Signal;HPM_P1;HPM_P2
2023/11/27 00:00:05;;;;;;;10.65;8.23;;;5.00;99.90;;;;;;5013968;28;20214;-65
2023/11/27 00:02:32;;;;;;;11.20;8.80;;;5.00;99.90;;;;;;5014164;28;20206;-64
2023/11/27 00:05:00;;;;;;;13.63;8.13;;;4.90;99.90;;;;;;5014153;28;20223;-63
2023/11/27 00:07:26;;;;;;;8.50;5.93;;;4.90;99.90;;;;;;5013929;28;20214;-64
2023/11/27 00:09:53;;;;;;;6.85;6.10;;;4.90;99.90;;;;;;5014002;28;20202;-63
2023/11/27 00:12:20;;;;;;;8.75;7.00;;;4.90;99.90;;;;;;5013286;28;20592;-64
2023/11/27 00:14:47;;;;;;;9.02;6.38;;;4.90;99.90;;;;;;5013627;28;20640;-63
2023/11/27 00:17:14;;;;;;;9.27;5.65;;;4.90;99.90;;;;;;5013531;28;20229;-64
2023/11/27 00:19:41;;;;;;;9.13;5.75;;;4.80;99.90;;;;;;5013698;28;20210;-63
2023/11/27 00:22:09;;;;;;;5.70;5.10;;;4.80;99.90;;;;;;5014555;28;20203;-63
2023/11/27 00:24:36;;;;;;;7.32;5.55;;;4.80;99.90;;;;;;5013505;28;20280;-63
2023/11/27 00:27:03;;;;;;;8.45;5.88;;;4.80;99.90;;;;;;5013506;28;20293;-65
2023/11/27 00:29:30;;;;;;;7.07;5.65;;;4.70;99.90;;;;;;5017394;28;20593;-64
2023/11/27 00:31:57;;;;;;;5.90;4.75;;;4.70;99.90;;;;;;5017506;28;20570;-62
2023/11/27 00:34:23;;;;;;;7.15;4.60;;;4.70;99.90;;;;;;5017072;28;20242;-64
2023/11/27 00:36:50;;;;;;;14.98;5.43;;;4.70;99.90;;;;;;5017230;28;20237;-63
2023/11/27 00:39:18;;;;;;;6.85;5.00;;;4.70;99.90;;;;;;5017487;28;20206;-64
2023/11/27 00:41:45;;;;;;;6.63;5.43;;;4.70;99.90;;;;;;5016870;28;20595;-63
2023/11/27 00:44:11;;;;;;;8.30;5.13;;;4.60;99.90;;;;;;5017207;28;20231;-64
2023/11/27 00:46:39;;;;;;;8.85;4.55;;;4.60;99.90;;;;;;5016936;28;20691;-63
2023/11/27 00:49:06;;;;;;;4.95;4.45;;;4.60;99.90;;;;;;5016984;28;20238;-64
2023/11/27 00:51:32;;;;;;;10.93;4.65;;;4.60;99.90;;;;;;5016883;28;20206;-64
2023/11/27 00:53:59;;;;;;;5.70;4.70;;;4.60;99.90;;;;;;5017216;28;20237;-63
2023/11/27 00:56:28;;;;;;;6.40;4.75;;;4.60;99.90;;;;;;5017079;28;20234;-63
2023/11/27 00:58:55;;;;;;;8.73;4.75;;;4.60;99.90;;;;;;5017349;28;20226;-64
2023/11/27 01:01:22;;;;;;;7.53;4.32;;;4.60;99.90;;;;;;5017625;28;20203;-63
2023/11/27 01:03:49;;;;;;;7.00;4.53;;;4.60;99.90;;;;;;5017535;28;20239;-63
2023/11/27 01:06:16;;;;;;;6.68;4.63;;;4.60;99.90;;;;;;5020316;28;20203;-64
2023/11/27 01:08:43;;;;;;;9.07;4.65;;;4.60;99.90;;;;;;5020684;28;20700;-63
2023/11/27 01:11:09;;;;;;;14.18;4.93;;;4.60;99.90;;;;;;5018814;28;20203;-63
2023/11/27 01:13:37;;;;;;;6.65;4.90;;;4.60;99.90;;;;;;5017391;28;20222;-65
2023/11/27 01:16:05;;;;;;;6.22;4.65;;;4.70;99.90;;;;;;5016586;28;20691;-64
2023/11/27 01:18:32;;;;;;;4.88;4.03;;;4.60;99.90;;;;;;5016408;28;20723;-64
2023/11/27 01:20:59;;;;;;;6.57;4.22;;;4.70;99.90;;;;;;5016881;28;20203;-64
2023/11/27 01:23:26;;;;;;;6.93;5.32;;;4.60;99.90;;;;;;5016381;28;20233;-63
2023/11/27 01:25:53;;;;;;;6.95;4.68;;;4.70;99.90;;;;;;5016637;28;20738;-64
2023/11/27 01:28:20;;;;;;;4.28;3.88;;;4.70;99.90;;;;;;5016949;28;20205;-64
2023/11/27 01:30:48;;;;;;;5.30;4.50;;;4.70;99.90;;;;;;5016534;28;20218;-64
2023/11/27 01:33:16;;;;;;;7.97;4.97;;;4.70;99.90;;;;;;5016533;28;20281;-64
2023/11/27 01:35:42;;;;;;;8.90;5.20;;;4.70;99.90;;;;;;5017093;28;20200;-63
2023/11/27 01:38:09;;;;;;;8.52;4.63;;;4.70;99.90;;;;;;5017160;28;20231;-65
2023/11/27 01:40:36;;;;;;;5.90;5.30;;;4.60;99.90;;;;;;5016859;28;20585;-62
2023/11/27 01:43:08;;;;;;;6.72;5.18;;;4.60;99.90;;;;;;5018277;28;20203;-64
2023/11/27 01:45:34;;;;;;;5.55;5.00;;;4.60;99.90;;;;;;5018330;28;20192;-66
2023/11/27 01:48:03;;;;;;;7.25;6.00;;;4.60;99.90;;;;;;5018490;28;20222;-63
2023/11/27 01:50:29;;;;;;;12.02;6.93;;;4.60;99.90;;;;;;5017667;28;20211;-64
2023/11/27 01:52:56;;;;;;;13.35;7.75;;;4.70;99.90;;;;;;5017275;28;20203;-64
2023/11/27 01:55:25;;;;;;;8.45;5.90;;;4.70;99.90;;;;;;5017090;28;20214;-64
2023/11/27 01:57:52;;;;;;;10.52;6.55;;;4.70;99.90;;;;;;5016494;28;20230;-64
2023/11/27 02:00:20;;;;;;;8.15;5.80;;;4.70;99.90;;;;;;5017242;28;20207;-64
2023/11/27 02:02:49;;;;;;;7.40;6.00;;;4.70;99.90;;;;;;5017849;28;20684;-63
2023/11/27 02:05:17;;;;;;;6.90;5.20;;;4.70;99.90;;;;;;5018927;28;20218;-63
2023/11/27 02:07:45;;;;;;;7.10;5.70;;;4.70;99.90;;;;;;5017097;28;20206;-62
2023/11/27 02:10:12;;;;;;;10.38;6.50;;;4.70;99.90;;;;;;5018491;28;20207;-63
2023/11/27 02:12:39;;;;;;;7.68;6.07;;;4.70;99.90;;;;;;5017224;28;20207;-63
2023/11/27 02:15:07;;;;;;;9.90;6.13;;;4.70;99.90;;;;;;5017219;28;20226;-63
2023/11/27 02:17:35;;;;;;;7.68;5.93;;;4.70;99.90;;;;;;5016741;28;20234;-63
2023/11/27 02:20:04;;;;;;;8.00;6.03;;;4.70;99.90;;;;;;5017314;28;20211;-63
2023/11/27 02:22:32;;;;;;;7.78;6.82;;;4.60;99.90;;;;;;5016911;28;20257;-63
2023/11/27 02:25:00;;;;;;;9.75;6.18;;;4.60;99.90;;;;;;5016382;28;20603;-64
2023/11/27 02:27:27;;;;;;;7.78;6.93;;;4.70;99.90;;;;;;5017319;28;20203;-64
2023/11/27 02:29:54;;;;;;;13.50;7.57;;;4.70;99.90;;;;;;5016488;28;20203;-64
2023/11/27 02:32:21;;;;;;;10.05;7.10;;;4.70;99.90;;;;;;5018011;28;20218;-63
2023/11/27 02:34:48;;;;;;;8.13;7.30;;;4.70;99.90;;;;;;5016536;28;20313;-64
2023/11/27 02:37:15;;;;;;;14.50;9.23;;;4.60;99.90;;;;;;5017352;28;20234;-62
2023/11/27 02:39:42;;;;;;;8.90;7.13;;;4.60;99.90;;;;;;5016679;28;20206;-62
2023/11/27 02:42:10;;;;;;;7.85;6.68;;;4.60;99.90;;;;;;5015970;28;20207;-62
2023/11/27 02:44:37;;;;;;;8.88;6.65;;;4.60;99.90;;;;;;5015490;28;20257;-63
2023/11/27 02:47:03;;;;;;;11.35;7.50;;;4.60;99.90;;;;;;5016738;28;20210;-63
2023/11/27 02:49:30;;;;;;;10.23;7.80;;;4.60;99.90;;;;;;5016161;28;20195;-64
2023/11/27 02:51:57;;;;;;;9.80;7.75;;;4.60;99.90;;;;;;5015478;28;20199;-63
2023/11/27 02:54:24;;;;;;;7.93;6.85;;;4.60;99.90;;;;;;5016079;28;20222;-64
2023/11/27 02:56:53;;;;;;;9.93;7.53;;;4.50;99.90;;;;;;5015947;28;20202;-64
2023/11/27 02:59:21;;;;;;;9.13;8.05;;;4.50;99.90;;;;;;5017647;28;20258;-64
2023/11/27 03:01:48;;;;;;;8.98;6.43;;;4.60;99.90;;;;;;5017761;28;20203;-63
2023/11/27 03:04:14;;;;;;;9.07;7.68;;;4.60;99.90;;;;;;5018589;28;20229;-63
2023/11/27 03:06:41;;;;;;;10.70;7.80;;;4.70;99.90;;;;;;5018886;28;20230;-64
2023/11/27 03:09:10;;;;;;;10.43;7.63;;;4.70;99.90;;;;;;5018466;28;20203;-63
2023/11/27 03:11:37;;;;;;;12.20;7.95;;;4.70;99.90;;;;;;5017191;28;20203;-62
2023/11/27 03:14:04;;;;;;;10.82;8.20;;;4.70;99.90;;;;;;5015914;28;20227;-63
2023/11/27 03:16:32;;;;;;;11.60;8.10;;;4.70;99.90;;;;;;5017792;28;20578;-63
2023/11/27 03:18:59;;;;;;;11.27;8.18;;;4.60;99.90;;;;;;5016604;28;20223;-64
2023/11/27 03:21:27;;;;;;;9.88;7.90;;;4.60;99.90;;;;;;5017360;28;20207;-63
2023/11/27 03:23:54;;;;;;;8.30;6.30;;;4.60;99.90;;;;;;5019232;28;20226;-63
2023/11/27 03:26:21;;;;;;;9.23;7.65;;;4.60;99.90;;;;;;5018365;28;20203;-63
2023/11/27 03:28:48;;;;;;;13.65;8.13;;;4.60;99.90;;;;;;5016621;28;20199;-62
2023/11/27 03:31:15;;;;;;;10.60;8.43;;;4.60;99.90;;;;;;5015614;28;20571;-64
2023/11/27 03:33:43;;;;;;;10.15;7.35;;;4.60;99.90;;;;;;5016996;28;20737;-64
2023/11/27 03:36:11;;;;;;;9.57;7.55;;;4.60;99.90;;;;;;5016284;28;20565;-63
2023/11/27 03:38:37;;;;;;;10.63;7.65;;;4.60;99.90;;;;;;5016158;28;20223;-63
2023/11/27 03:41:05;;;;;;;8.23;7.13;;;4.60;99.90;;;;;;5015184;28;20665;-62
2023/11/27 03:43:32;;;;;;;8.50;7.25;;;4.60;99.90;;;;;;5015732;28;20226;-64
2023/11/27 03:45:59;;;;;;;8.07;7.25;;;4.70;99.90;;;;;;5015266;28;20209;-63
2023/11/27 03:48:26;;;;;;;9.15;8.05;;;4.70;99.90;;;;;;5014131;28;20302;-65
2023/11/27 03:50:54;;;;;;;8.32;7.43;;;4.70;99.90;;;;;;5014647;28;20213;-64
2023/11/27 03:53:20;;;;;;;10.10;7.53;;;4.60;99.90;;;;;;5014440;28;20226;-64
2023/11/27 03:55:47;;;;;;;10.23;7.85;;;4.60;99.90;;;;;;5015109;28;20579;-61
2023/11/27 03:58:14;;;;;;;10.70;7.63;;;4.70;99.90;;;;;;5015267;28;20219;-64
2023/11/27 04:00:41;;;;;;;10.85;9.07;;;4.70;99.90;;;;;;5015141;28;20214;-63
2023/11/27 04:03:08;;;;;;;11.20;9.98;;;4.60;99.90;;;;;;5014972;28;20227;-62
2023/11/27 04:05:35;;;;;;;13.05;10.05;;;4.60;99.90;;;;;;5015848;28;20202;-63
2023/11/27 04:08:04;;;;;;;14.35;11.57;;;4.60;99.90;;;;;;5014666;28;20577;-64
2023/11/27 04:12:37;;;;;;;13.27;10.73;;;4.60;99.90;;;;;;5091095;28;20611;-63
2023/11/27 04:15:05;;;;;;;15.23;11.75;;;4.60;99.90;;;;;;5090409;28;20603;-62
2023/11/27 04:17:32;;;;;;;21.70;12.30;;;4.60;99.90;;;;;;5090835;28;20666;-63
2023/11/27 04:20:02;;;;;;;18.23;12.80;;;4.60;99.90;;;;;;5090796;28;20204;-64
2023/11/27 04:22:32;;;;;;;18.45;13.43;;;4.60;99.90;;;;;;5090904;28;20185;-63
2023/11/27 04:24:59;;;;;;;18.70;13.35;;;4.60;99.90;;;;;;5090373;28;20227;-63
2023/11/27 04:27:26;;;;;;;24.38;15.65;;;4.70;99.90;;;;;;5090671;28;20196;-63
2023/11/27 04:29:54;;;;;;;22.20;14.60;;;4.60;99.90;;;;;;5090497;28;20204;-63
2023/11/27 04:32:21;;;;;;;21.35;14.90;;;4.70;99.90;;;;;;5090540;28;20223;-63
2023/11/27 04:34:49;;;;;;;20.45;15.00;;;4.70;99.90;;;;;;5090276;28;20736;-63
2023/11/27 04:37:16;;;;;;;20.02;14.70;;;4.70;99.90;;;;;;5090034;28;20642;-64
2023/11/27 04:39:42;;;;;;;17.50;14.10;;;4.70;99.90;;;;;;5090249;28;20197;-64
2023/11/27 04:42:09;;;;;;;23.88;15.57;;;4.70;99.90;;;;;;5089817;28;20727;-63
2023/11/27 04:44:36;;;;;;;21.77;15.40;;;4.70;99.90;;;;;;5090911;28;20220;-63
2023/11/27 04:47:05;;;;;;;21.15;16.50;;;4.70;99.90;;;;;;5091040;28;20207;-63
2023/11/27 04:49:32;;;;;;;20.30;15.48;;;4.70;99.90;;;;;;5090962;28;20571;-63
2023/11/27 04:51:59;;;;;;;20.23;14.77;;;4.70;99.90;;;;;;5090481;28;20749;-64
2023/11/27 04:54:25;;;;;;;21.63;17.17;;;4.80;99.90;;;;;;5090741;28;20340;-63
2023/11/27 04:56:52;;;;;;;20.23;14.50;;;4.80;99.90;;;;;;5090549;28;20215;-63
2023/11/27 04:59:19;;;;;;;18.17;15.80;;;4.80;99.90;;;;;;5090264;28;20211;-64
2023/11/27 05:01:46;;;;;;;20.23;15.85;;;4.80;99.90;;;;;;5091028;28;20235;-62
2023/11/27 05:04:17;;;;;;;23.02;16.55;;;4.80;99.90;;;;;;5090024;28;20220;-62
2023/11/27 05:06:44;;;;;;;21.25;14.77;;;4.80;99.90;;;;;;5090312;28;20639;-62
2023/11/27 05:09:11;;;;;;;22.55;15.90;;;4.80;99.90;;;;;;5090225;28;20200;-63
2023/11/27 05:11:38;;;;;;;22.88;15.70;;;4.80;99.90;;;;;;5091426;28;20250;-62
2023/11/27 05:14:05;;;;;;;20.08;16.00;;;4.80;99.90;;;;;;5092328;28;20227;-63
2023/11/27 05:16:32;;;;;;;23.13;17.15;;;4.70;99.90;;;;;;5091152;28;20697;-63
2023/11/27 05:18:59;;;;;;;23.42;17.63;;;4.70;99.90;;;;;;5091001;28;20219;-63
2023/11/27 05:21:27;;;;;;;20.70;15.95;;;4.70;99.90;;;;;;5089893;28;20212;-62
2023/11/27 05:23:54;;;;;;;24.85;17.05;;;4.70;99.90;;;;;;5076607;28;20278;-63
2023/11/27 05:26:20;;;;;;;20.08;16.10;;;4.70;99.90;;;;;;5075612;28;20208;-62
2023/11/27 05:28:47;;;;;;;28.40;17.00;;;4.70;99.90;;;;;;5076287;28;20205;-63
2023/11/27 05:31:14;;;;;;;22.05;15.82;;;4.70;99.90;;;;;;5076171;28;20221;-63
2023/11/27 05:33:42;;;;;;;23.77;17.38;;;4.70;99.90;;;;;;5075827;28;20692;-64
2023/11/27 05:36:09;;;;;;;19.27;16.05;;;4.70;99.90;;;;;;5076172;28;20585;-63
2023/11/27 05:38:38;;;;;;;24.13;16.23;;;4.70;99.90;;;;;;5076365;28;20213;-64
2023/11/27 05:41:07;;;;;;;24.33;16.50;;;4.70;99.90;;;;;;5076699;28;20197;-63
2023/11/27 05:43:33;;;;;;;23.40;15.57;;;4.60;99.90;;;;;;5075927;28;20725;-62
2023/11/27 05:46:01;;;;;;;22.30;15.77;;;4.60;99.90;;;;;;5075891;28;20201;-63
2023/11/27 05:48:28;;;;;;;22.13;15.35;;;4.60;99.90;;;;;;5076342;28;20200;-63
2023/11/27 05:50:54;;;;;;;24.92;16.55;;;4.60;99.90;;;;;;5076448;28;20201;-63
2023/11/27 05:53:21;;;;;;;21.90;15.88;;;4.60;99.90;;;;;;5076784;28;20706;-63
2023/11/27 05:55:49;;;;;;;20.38;14.98;;;4.60;99.90;;;;;;5076784;28;20207;-62
2023/11/27 05:58:16;;;;;;;20.95;16.00;;;4.60;99.90;;;;;;5077460;28;20236;-62
2023/11/27 06:00:43;;;;;;;21.80;15.50;;;4.70;99.90;;;;;;5077303;28;20197;-63
2023/11/27 06:03:09;;;;;;;24.50;15.60;;;4.70;99.90;;;;;;5077445;28;20221;-63
2023/11/27 06:05:37;;;;;;;17.08;13.88;;;4.70;99.90;;;;;;5081676;28;20224;-63
2023/11/27 06:08:04;;;;;;;22.27;14.35;;;4.70;99.90;;;;;;5082227;28;20288;-64
2023/11/27 06:10:31;;;;;;;19.52;14.10;;;4.70;99.90;;;;;;5079978;28;20209;-63
2023/11/27 06:12:59;;;;;;;21.50;14.88;;;4.70;99.90;;;;;;5082849;28;20246;-61
2023/11/27 06:15:26;;;;;;;21.60;15.02;;;4.70;99.90;;;;;;5082843;28;20197;-63
2023/11/27 06:17:53;;;;;;;16.55;14.43;;;4.70;99.90;;;;;;5082643;28;20662;-63
2023/11/27 06:20:20;;;;;;;21.63;13.45;;;4.70;99.90;;;;;;5082865;28;20209;-62
2023/11/27 06:22:46;;;;;;;19.02;13.02;;;4.70;99.90;;;;;;5082240;28;20264;-64
2023/11/27 06:25:13;;;;;;;21.67;13.70;;;4.70;99.90;;;;;;5082619;28;20200;-63
2023/11/27 06:27:41;;;;;;;16.70;13.48;;;4.70;99.90;;;;;;5075667;28;20204;-63
2023/11/27 06:30:10;;;;;;;15.45;12.30;;;4.60;99.90;;;;;;5075777;28;20201;-62
2023/11/27 06:32:37;;;;;;;14.63;11.50;;;4.60;99.90;;;;;;5075464;28;20702;-63
2023/11/27 06:35:04;;;;;;;19.27;13.20;;;4.70;99.90;;;;;;5074682;28;20217;-63
2023/11/27 06:37:31;;;;;;;15.85;13.43;;;4.70;99.90;;;;;;5075502;28;20209;-64
2023/11/27 06:39:58;;;;;;;16.55;11.32;;;4.70;99.90;;;;;;5075651;28;20200;-64
2023/11/27 06:42:25;;;;;;;13.95;11.80;;;4.70;99.90;;;;;;5075294;28;20231;-62
2023/11/27 06:44:51;;;;;;;20.15;13.13;;;4.70;99.90;;;;;;5075836;28;20225;-63
2023/11/27 06:47:19;;;;;;;16.35;13.10;;;4.80;99.90;;;;;;5075443;28;20573;-64
2023/11/27 06:49:46;;;;;;;20.23;12.10;;;4.80;99.90;;;;;;5075508;28;20204;-64
2023/11/27 06:52:12;;;;;;;19.25;13.18;;;4.80;99.90;;;;;;5075601;28;20217;-63
2023/11/27 06:54:39;;;;;;;14.97;12.00;;;4.80;99.90;;;;;;5075078;28;20270;-63
2023/11/27 06:57:08;;;;;;;19.75;13.02;;;4.80;99.90;;;;;;5074943;28;20209;-63
2023/11/27 06:59:35;;;;;;;15.63;12.77;;;4.80;99.90;;;;;;5074790;28;20622;-63
2023/11/27 07:02:02;;;;;;;16.58;11.80;;;4.80;99.90;;;;;;5075050;28;20204;-63
2023/11/27 07:04:30;;;;;;;19.38;13.98;;;4.90;99.90;;;;;;5074806;28;20220;-63
2023/11/27 07:06:57;;;;;;;16.90;12.60;;;4.90;99.90;;;;;;5075386;28;20211;-63
2023/11/27 07:09:24;;;;;;;17.10;12.95;;;4.90;99.90;;;;;;5075147;28;20201;-63
2023/11/27 07:11:53;;;;;;;16.15;12.23;;;4.90;99.90;;;;;;5075149;28;20228;-63
2023/11/27 07:14:20;;;;;;;17.92;11.60;;;4.90;99.90;;;;;;5074876;28;20221;-62
2023/11/27 07:16:47;;;;;;;15.77;13.15;;;4.90;99.90;;;;;;5074490;28;20718;-63
2023/11/27 07:19:13;;;;;;;19.05;12.60;;;4.90;99.90;;;;;;5074433;28;20216;-62
2023/11/27 07:21:42;;;;;;;14.68;11.52;;;4.90;99.90;;;;;;5075590;28;20197;-64
2023/11/27 07:24:10;;;;;;;13.10;11.50;;;4.90;99.90;;;;;;5074376;28;20248;-63
2023/11/27 07:26:38;;;;;;;14.68;12.05;;;4.90;99.90;;;;;;5074454;28;20232;-63
2023/11/27 07:29:05;;;;;;;16.45;11.57;;;5.00;99.90;;;;;;5074636;28;20209;-66
2023/11/27 07:31:33;;;;;;;20.02;11.82;;;5.00;99.90;;;;;;5074125;28;20312;-62
2023/11/27 07:34:00;;;;;;;14.52;11.05;;;5.00;99.90;;;;;;5074191;28;20224;-60
2023/11/27 07:36:27;;;;;;;13.82;11.95;;;5.00;99.90;;;;;;5075040;28;20286;-63
2023/11/27 07:38:55;;;;;;;15.68;12.55;;;5.00;99.90;;;;;;5074073;28;20228;-63
2023/11/27 07:41:23;;;;;;;17.17;11.98;;;5.00;99.90;;;;;;5074765;28;20201;-63
2023/11/27 07:43:50;;;;;;;16.23;11.40;;;5.00;99.90;;;;;;5074345;28;20220;-63
2023/11/27 07:46:16;;;;;;;14.35;11.38;;;5.00;99.90;;;;;;5073860;28;20201;-64
2023/11/27 07:48:43;;;;;;;16.13;11.18;;;5.10;99.90;;;;;;5073972;28;20223;-65
2023/11/27 07:51:10;;;;;;;13.07;10.85;;;5.10;99.90;;;;;;5073817;28;20693;-63
2023/11/27 07:53:37;;;;;;;13.07;11.15;;;5.10;99.90;;;;;;5074121;28;20236;-64
2023/11/27 07:56:07;;;;;;;13.85;11.10;;;5.10;99.90;;;;;;5075774;28;20220;-64
2023/11/27 07:58:33;;;;;;;11.75;10.55;;;5.10;99.90;;;;;;5076421;28;20204;-63
2023/11/27 08:01:00;;;;;;;14.35;11.30;;;5.10;99.90;;;;;;5077402;28;20201;-62
2023/11/27 08:03:27;;;;;;;11.70;10.48;;;5.20;99.90;;;;;;5074943;28;20220;-63
2023/11/27 08:05:54;;;;;;;13.50;9.75;;;5.10;99.90;;;;;;5075154;28;20634;-62
2023/11/27 08:08:21;;;;;;;12.30;10.35;;;5.10;99.90;;;;;;5078235;28;20204;-64
2023/11/27 08:10:48;;;;;;;13.38;10.15;;;5.10;99.90;;;;;;5074979;28;20300;-63
2023/11/27 08:13:16;;;;;;;15.88;10.13;;;5.10;99.90;;;;;;5074665;28;20220;-64
2023/11/27 08:15:42;;;;;;;12.10;9.45;;;5.20;99.90;;;;;;5075009;28;20262;-62
2023/11/27 08:18:09;;;;;;;12.10;9.60;;;5.20;99.90;;;;;;5080827;28;20201;-64
2023/11/27 08:20:38;;;;;;;13.82;9.02;;;5.20;99.90;;;;;;5075698;28;20465;-63
2023/11/27 08:23:05;;;;;;;10.13;9.05;;;5.20;99.90;;;;;;5075270;28;20288;-64
2023/11/27 08:25:32;;;;;;;10.80;8.65;;;5.20;99.90;;;;;;5075618;28;20299;-63
2023/11/27 08:27:58;;;;;;;12.27;8.38;;;5.20;99.90;;;;;;5075666;28;20543;-63
2023/11/27 08:30:29;;;;;;;9.48;8.48;;;5.20;99.90;;;;;;5074001;28;20697;-64
2023/11/27 08:32:55;;;;;;;10.48;8.52;;;5.20;99.90;;;;;;5074724;28;20254;-64
2023/11/27 08:35:22;;;;;;;11.10;9.60;;;5.20;99.90;;;;;;5074598;28;20205;-64
2023/11/27 08:37:49;;;;;;;13.23;8.98;;;5.30;99.90;;;;;;5074509;28;20201;-63
2023/11/27 08:40:16;;;;;;;10.68;8.70;;;5.30;99.90;;;;;;5074011;28;20208;-63
2023/11/27 08:42:43;;;;;;;12.60;9.20;;;5.30;99.90;;;;;;5074411;28;20330;-63
2023/11/27 08:45:15;;;;;;;12.52;9.40;;;5.30;99.90;;;;;;5074025;28;20223;-63
2023/11/27 08:47:50;;;;;;;13.00;8.75;;;5.30;99.90;;;;;;5074204;28;20661;-64
2023/11/27 08:50:17;;;;;;;10.57;8.50;;;5.30;99.90;;;;;;5075146;28;20181;-63
2023/11/27 08:52:45;;;;;;;12.02;8.60;;;5.40;99.90;;;;;;5074539;28;20247;-64
2023/11/27 08:55:18;;;;;;;10.43;8.32;;;5.40;99.90;;;;;;5075151;28;20292;-63
2023/11/27 08:57:45;;;;;;;12.57;8.20;;;5.40;99.90;;;;;;5077496;28;20260;-65
2023/11/27 09:00:14;;;;;;;8.50;7.70;;;5.40;99.90;;;;;;5082278;28;20209;-63
2023/11/27 09:02:41;;;;;;;10.35;8.73;;;5.50;99.90;;;;;;5081641;28;20236;-63
2023/11/27 09:05:10;;;;;;;12.15;9.05;;;5.40;99.90;;;;;;5081512;28;20223;-63
2023/11/27 09:07:37;;;;;;;11.38;8.18;;;5.50;99.90;;;;;;5081367;28;20205;-63
2023/11/27 09:10:05;;;;;;;11.95;8.65;;;5.50;99.90;;;;;;5064912;28;20577;-62
2023/11/27 09:12:32;;;;;;;12.65;8.25;;;5.50;99.90;;;;;;5066335;28;20213;-63
2023/11/27 09:14:58;;;;;;;8.43;7.50;;;5.50;99.90;;;;;;5064069;28;20218;-62
2023/11/27 09:17:25;;;;;;;8.95;8.07;;;5.50;99.90;;;;;;5060677;28;20675;-63
2023/11/27 09:19:53;;;;;;;8.40;7.53;;;5.50;99.90;;;;;;5065107;28;20198;-63
2023/11/27 09:22:21;;;;;;;9.05;7.30;;;5.60;99.90;;;;;;5068334;28;20217;-66
2023/11/27 09:24:48;;;;;;;10.65;7.35;;;5.60;99.90;;;;;;5070566;28;20267;-64
2023/11/27 09:27:15;;;;;;;9.10;8.20;;;5.60;99.90;;;;;;5079999;28;20254;-64
2023/11/27 09:29:42;;;;;;;11.20;7.85;;;5.60;99.90;;;;;;5079391;28;20204;-65
2023/11/27 09:32:08;;;;;;;8.77;7.25;;;5.70;99.90;;;;;;5064724;28;20209;-63
2023/11/27 09:34:36;;;;;;;9.70;7.78;;;5.70;99.90;;;;;;5071532;28;20225;-63
2023/11/27 09:37:03;;;;;;;7.22;6.20;;;5.60;99.90;;;;;;5062808;28;20207;-64
2023/11/27 09:39:31;;;;;;;9.40;7.13;;;5.60;99.90;;;;;;5073981;28;20193;-63
2023/11/27 09:41:58;;;;;;;13.80;6.97;;;5.60;99.90;;;;;;5084552;28;20543;-63
2023/11/27 09:44:25;;;;;;;6.68;6.00;;;5.60;99.90;;;;;;5078986;28;20293;-63
2023/11/27 09:46:56;;;;;;;6.88;6.18;;;5.60;99.90;;;;;;5065961;28;20206;-63
2023/11/27 09:49:24;;;;;;;6.50;5.90;;;5.60;99.90;;;;;;5064751;28;20213;-63
2023/11/27 09:51:55;;;;;;;5.70;5.20;;;5.60;99.90;;;;;;5074612;28;20206;-65
2023/11/27 09:54:25;;;;;;;8.70;6.55;;;5.70;99.90;;;;;;5073696;28;20224;-63
2023/11/27 09:56:55;;;;;;;6.90;5.68;;;5.70;99.90;;;;;;5087931;28;20571;-65
2023/11/27 09:59:27;;;;;;;8.52;6.10;;;5.70;99.90;;;;;;5087285;28;20186;-63
2023/11/27 10:01:54;;;;;;;6.97;6.30;;;5.70;99.90;;;;;;5082482;28;20249;-63
2023/11/27 10:04:20;;;;;;;7.18;5.82;;;5.70;99.90;;;;;;5078313;28;20225;-64
2023/11/27 10:06:48;;;;;;;9.68;6.55;;;5.70;99.90;;;;;;5083926;28;20208;-63
2023/11/27 10:09:17;;;;;;;7.20;6.20;;;5.70;99.90;;;;;;5067202;28;20205;-64
2023/11/27 10:11:44;;;;;;;7.70;6.70;;;5.70;99.90;;;;;;5066491;28;20313;-63
2023/11/27 10:14:12;;;;;;;9.38;7.43;;;5.70;99.90;;;;;;5062712;28;20242;-63
2023/11/27 10:16:40;;;;;;;10.35;7.97;;;5.70;99.90;;;;;;5061187;28;20204;-63
2023/11/27 10:19:08;;;;;;;11.60;7.80;;;5.70;99.90;;;;;;5064118;28;20193;-64
2023/11/27 10:21:36;;;;;;;7.53;6.72;;;5.70;99.90;;;;;;5081251;28;20213;-63
2023/11/27 10:24:08;;;;;;;9.23;7.00;;;5.60;99.90;;;;;;5067228;28;20240;-63
2023/11/27 10:26:37;;;;;;;9.57;8.18;;;5.60;99.90;;;;;;5073260;28;20228;-62
2023/11/27 10:29:06;;;;;;;7.35;6.65;;;5.60;99.90;;;;;;5076949;28;20266;-63
2023/11/27 10:31:35;;;;;;;8.63;7.80;;;5.60;99.90;;;;;;5072615;28;20193;-62
2023/11/27 10:34:01;;;;;;;8.68;7.28;;;5.60;99.90;;;;;;5058777;28;20228;-64
2023/11/27 10:36:28;;;;;;;11.43;7.60;;;5.60;99.90;;;;;;5065911;28;20189;-63
2023/11/27 10:39:05;;;;;;;9.68;8.38;;;5.60;99.90;;;;;;5075523;28;20436;-63
2023/11/27 10:41:32;;;;;;;9.10;6.97;;;5.50;99.90;;;;;;5067143;28;20722;-63
2023/11/27 10:43:59;;;;;;;9.40;8.25;;;5.50;99.90;;;;;;5076822;28;20221;-63
2023/11/27 10:46:29;;;;;;;10.88;8.30;;;5.50;99.90;;;;;;5076114;28;20204;-63
2023/11/27 10:48:59;;;;;;;7.78;7.07;;;5.50;99.90;;;;;;5067643;28;20208;-64
2023/11/27 10:51:31;;;;;;;10.50;7.85;;;5.40;99.90;;;;;;5068150;28;20251;-64
2023/11/27 10:53:59;;;;;;;8.75;7.95;;;5.40;99.90;;;;;;5075021;28;20407;-63
2023/11/27 10:56:28;;;;;;;7.50;6.80;;;5.30;99.90;;;;;;5055404;28;20211;-62
2023/11/27 10:58:56;;;;;;;8.13;7.32;;;5.30;99.90;;;;;;5054822;28;20750;-64
2023/11/27 11:01:28;;;;;;;11.13;7.65;;;5.30;99.90;;;;;;5056521;28;20205;-63
2023/11/27 11:03:59;;;;;;;9.82;8.15;;;5.30;99.90;;;;;;5065307;28;20245;-63
2023/11/27 11:06:27;;;;;;;9.95;6.80;;;5.20;99.90;;;;;;5054959;28;20663;-62
2023/11/27 11:08:56;;;;;;;9.23;7.88;;;5.20;99.90;;;;;;5055224;28;20197;-64
2023/11/27 11:11:24;;;;;;;12.15;7.40;;;5.10;99.90;;;;;;5054586;28;20221;-63
2023/11/27 11:13:52;;;;;;;9.63;7.45;;;5.20;99.90;;;;;;5055213;28;20236;-63
2023/11/27 11:16:25;;;;;;;8.00;7.20;;;5.10;99.90;;;;;;5055295;28;20201;-63
2023/11/27 11:18:57;;;;;;;9.25;6.93;;;5.10;99.90;;;;;;5054930;28;20205;-63
2023/11/27 11:21:43;;;;;;;10.90;7.68;;;5.00;99.90;;;;;;5056964;28;20194;-64
2023/11/27 11:24:19;;;;;;;11.30;7.45;;;5.00;99.90;;;;;;5065402;28;20213;-64
2023/11/27 11:26:58;;;;;;;7.80;6.22;;;5.00;99.90;;;;;;5076212;28;20189;-63
2023/11/27 11:29:33;;;;;;;6.53;5.90;;;5.00;99.90;;;;;;5055115;28;20194;-63
2023/11/27 11:32:01;;;;;;;8.85;6.40;;;4.90;99.90;;;;;;5058421;28;20635;-64
2023/11/27 11:34:32;;;;;;;7.90;5.60;;;4.90;99.90;;;;;;5064417;28;20221;-63
2023/11/27 11:37:03;;;;;;;9.93;7.25;;;4.90;99.90;;;;;;5076763;28;20288;-63
2023/11/27 11:39:30;;;;;;;8.00;7.13;;;4.90;99.90;;;;;;5063498;28;20194;-64
2023/11/27 11:42:02;;;;;;;7.07;6.38;;;4.90;99.90;;;;;;5068505;28;20208;-63
2023/11/27 11:44:29;;;;;;;13.77;8.45;;;4.80;99.90;;;;;;5064660;28;20213;-63
2023/11/27 11:46:56;;;;;;;7.60;6.80;;;4.80;99.90;;;;;;5061987;28;20678;-62
2023/11/27 11:49:25;;;;;;;12.70;7.03;;;4.80;99.90;;;;;;5055053;28;20229;-63
2023/11/27 11:52:07;;;;;;;15.80;7.70;;;4.80;99.90;;;;;;5054396;28;20210;-63
2023/11/27 11:54:38;;;;;;;9.02;6.65;;;4.80;99.90;;;;;;5054119;28;20234;-64
2023/11/27 11:57:16;;;;;;;10.40;7.32;;;4.70;99.90;;;;;;5070162;28;20185;-62
2023/11/27 11:59:46;;;;;;;8.63;6.00;;;4.70;99.90;;;;;;5073995;28;20231;-63
2023/11/27 12:02:14;;;;;;;10.05;7.00;;;4.70;99.90;;;;;;5073356;28;20200;-62
2023/11/27 12:04:40;;;;;;;9.30;6.47;;;4.70;99.90;;;;;;5074375;28;20217;-63
2023/11/27 12:07:09;;;;;;;9.30;7.07;;;4.60;99.90;;;;;;5069216;28;20248;-61
2023/11/27 12:09:36;;;;;;;13.25;6.78;;;4.60;99.90;;;;;;5054314;28;20216;-65
2023/11/27 12:12:03;;;;;;;13.20;8.15;;;4.60;99.90;;;;;;5054672;28;20206;-63
2023/11/27 12:14:32;;;;;;;13.18;7.55;;;4.60;99.90;;;;;;5055127;28;20229;-63
2023/11/27 12:16:59;;;;;;;8.27;6.60;;;4.60;99.90;;;;;;5055736;28;20266;-63
2023/11/27 12:19:27;;;;;;;10.27;6.97;;;4.50;99.90;;;;;;5055912;28;20202;-63
2023/11/27 12:21:54;;;;;;;7.93;6.78;;;4.50;99.90;;;;;;5054864;28;20292;-63
2023/11/27 12:24:24;;;;;;;9.70;7.32;;;4.50;99.90;;;;;;5055830;28;20213;-63
2023/11/27 12:26:52;;;;;;;8.55;7.75;;;4.40;99.90;;;;;;5061414;28;20201;-64
2023/11/27 12:29:20;;;;;;;9.35;6.65;;;4.40;99.90;;;;;;5055502;28;20281;-63
2023/11/27 12:31:47;;;;;;;10.75;8.40;;;4.40;99.90;;;;;;5054820;28;20233;-63
2023/11/27 12:34:16;;;;;;;13.45;7.18;;;4.40;99.90;;;;;;5058292;28;20686;-62
2023/11/27 12:36:44;;;;;;;12.18;8.20;;;4.30;99.90;;;;;;5059975;28;20198;-64
2023/11/27 12:39:11;;;;;;;7.00;6.28;;;4.30;99.90;;;;;;5077902;28;20200;-64
2023/11/27 12:41:43;;;;;;;10.52;7.25;;;4.30;99.90;;;;;;5078918;28;20227;-63
2023/11/27 12:44:13;;;;;;;8.10;6.70;;;4.30;99.90;;;;;;5078894;28;20252;-64
2023/11/27 12:46:43;;;;;;;10.93;6.78;;;4.20;99.90;;;;;;5078328;28;20189;-63
2023/11/27 12:49:17;;;;;;;8.00;6.65;;;4.20;99.90;;;;;;5078138;28;20196;-63
2023/11/27 12:51:45;;;;;;;7.05;6.35;;;4.20;99.90;;;;;;5077715;28;20208;-63